Terminal Aerodrome Forecast
Issued by NWS Jacksonville, FL

Home | Current Version | Previous Version | Text Only | Print | Product List | Glossary On
Versions: 1 2 3 4 5 6 7 8 9 10 11 12 13 14 15 16 17 18 19 20 21
000
FTUS42 KJAX 051722
TAFJAX
TAF
KJAX 051722Z 0518/0618 21012G22KT P6SM SCT035 BKN040
     FM052200 23010KT P6SM SCT025 BKN040
     FM060200 28008KT P6SM VCSH BKN020
     FM060700 33008KT P6SM VCSH BKN020
     FM061100 02008KT P6SM SCT010 BKN020=

USA.gov is the U.S. government's official web portal to all federal, state and local government web resources and services.